sensor_id;sensor_type;location;lat;lon;timestamp;pressure;altitude;pressure_sealevel;temperature;humidity
24825;BME280;12910;57.690;11.974;2022-08-19T00:00:36;100490.16;;;18.20;100.00
24825;BME280;12910;57.690;11.974;2022-08-19T00:03:03;100478.94;;;18.18;100.00
24825;BME280;12910;57.690;11.974;2022-08-19T00:05:28;100494.47;;;18.21;100.00
24825;BME280;12910;57.690;11.974;2022-08-19T00:07:54;100472.09;;;18.17;100.00
24825;BME280;12910;57.690;11.974;2022-08-19T00:10:20;100482.31;;;18.25;100.00
24825;BME280;12910;57.690;11.974;2022-08-19T00:12:46;100474.63;;;18.19;100.00
24825;BME280;12910;57.690;11.974;2022-08-19T00:15:14;100478.31;;;18.07;100.00
24825;BME280;12910;57.690;11.974;2022-08-19T00:17:42;100472.16;;;18.11;100.00
24825;BME280;12910;57.690;11.974;2022-08-19T00:20:09;100481.63;;;18.14;100.00
24825;BME280;12910;57.690;11.974;2022-08-19T00:22:37;100472.16;;;18.11;100.00
24825;BME280;12910;57.690;11.974;2022-08-19T00:25:05;100478.94;;;18.20;100.00
24825;BME280;12910;57.690;11.974;2022-08-19T00:27:31;100488.44;;;18.21;100.00
24825;BME280;12910;57.690;11.974;2022-08-19T00:29:57;100462.59;;;18.15;100.00
24825;BME280;12910;57.690;11.974;2022-08-19T00:32:24;100481.41;;;18.26;100.00
24825;BME280;12910;57.690;11.974;2022-08-19T00:34:50;100469.41;;;18.22;100.00
24825;BME280;12910;57.690;11.974;2022-08-19T00:37:18;100465.91;;;18.23;100.00
24825;BME280;12910;57.690;11.974;2022-08-19T00:39:44;100455.59;;;18.20;100.00
24825;BME280;12910;57.690;11.974;2022-08-19T00:42:10;100457.34;;;18.18;100.00
24825;BME280;12910;57.690;11.974;2022-08-19T00:44:35;100472.72;;;18.30;100.00
24825;BME280;12910;57.690;11.974;2022-08-19T00:47:00;100481.53;;;18.20;100.00
24825;BME280;12910;57.690;11.974;2022-08-19T00:49:38;100470.38;;;18.16;100.00
24825;BME280;12910;57.690;11.974;2022-08-19T00:52:21;100470.50;;;18.09;100.00
24825;BME280;12910;57.690;11.974;2022-08-19T00:54:48;100488.53;;;18.16;100.00
24825;BME280;12910;57.690;11.974;2022-08-19T00:57:17;100478.94;;;18.18;100.00
24825;BME280;12910;57.690;11.974;2022-08-19T00:59:46;100477.22;;;18.19;100.00
24825;BME280;12910;57.690;11.974;2022-08-19T01:02:15;100476.31;;;18.21;100.00
24825;BME280;12910;57.690;11.974;2022-08-19T01:04:41;100481.63;;;18.14;100.00
24825;BME280;12910;57.690;11.974;2022-08-19T01:07:07;100485.94;;;18.16;100.00
24825;BME280;12910;57.690;11.974;2022-08-19T01:09:33;100486.88;;;18.11;100.00
24825;BME280;12910;57.690;11.974;2022-08-19T01:11:59;100478.22;;;18.12;100.00
24825;BME280;12910;57.690;11.974;2022-08-19T01:14:24;100482.47;;;18.16;100.00
24825;BME280;12910;57.690;11.974;2022-08-19T01:16:51;100485.94;;;18.15;100.00
24825;BME280;12910;57.690;11.974;2022-08-19T01:19:31;100488.53;;;18.15;100.00
24825;BME280;12910;57.690;11.974;2022-08-19T01:22:07;100485.94;;;18.16;100.00
24825;BME280;12910;57.690;11.974;2022-08-19T01:24:33;100475.56;;;18.16;100.00
24825;BME280;12910;57.690;11.974;2022-08-19T01:26:59;100478.94;;;18.18;100.00
24825;BME280;12910;57.690;11.974;2022-08-19T01:29:24;100472.94;;;18.18;100.00
24825;BME280;12910;57.690;11.974;2022-08-19T01:31:50;100471.25;;;18.14;100.00
24825;BME280;12910;57.690;11.974;2022-08-19T01:34:19;100474.75;;;18.13;100.00
24825;BME280;12910;57.690;11.974;2022-08-19T01:36:46;100470.38;;;18.16;100.00
24825;BME280;12910;57.690;11.974;2022-08-19T01:39:17;100469.56;;;18.13;100.00
24825;BME280;12910;57.690;11.974;2022-08-19T01:41:44;100471.50;;;18.01;100.00
24825;BME280;12910;57.690;11.974;2022-08-19T01:44:09;100468.06;;;17.99;100.00
24825;BME280;12910;57.690;11.974;2022-08-19T01:46:36;100459.44;;;17.94;100.00
24825;BME280;12910;57.690;11.974;2022-08-19T01:49:04;100481.06;;;17.96;100.00
24825;BME280;12910;57.690;11.974;2022-08-19T01:51:30;100486.25;;;17.98;100.00
24825;BME280;12910;57.690;11.974;2022-08-19T01:53:57;100480.34;;;17.85;100.00
24825;BME280;12910;57.690;11.974;2022-08-19T01:56:23;100484.50;;;17.95;100.00
24825;BME280;12910;57.690;11.974;2022-08-19T01:58:54;100469.97;;;17.86;100.00
24825;BME280;12910;57.690;11.974;2022-08-19T02:01:20;100475.09;;;17.91;100.00
24825;BME280;12910;57.690;11.974;2022-08-19T02:03:46;100467.31;;;17.91;100.00
24825;BME280;12910;57.690;11.974;2022-08-19T02:06:12;100471.03;;;17.73;100.00
24825;BME280;12910;57.690;11.974;2022-08-19T02:08:38;100478.94;;;17.65;100.00
24825;BME280;12910;57.690;11.974;2022-08-19T02:11:04;100479.03;;;17.59;100.00
24825;BME280;12910;57.690;11.974;2022-08-19T02:13:30;100472.19;;;17.55;100.00
24825;BME280;12910;57.690;11.974;2022-08-19T02:15:56;100481.66;;;17.57;100.00
24825;BME280;12910;57.690;11.974;2022-08-19T02:18:21;100487.69;;;17.59;100.00
24825;BME280;12910;57.690;11.974;2022-08-19T02:20:47;100482.50;;;17.59;100.00
24825;BME280;12910;57.690;11.974;2022-08-19T02:23:13;100486.66;;;17.68;100.00
24825;BME280;12910;57.690;11.974;2022-08-19T02:25:40;100487.50;;;17.70;100.00
24825;BME280;12910;57.690;11.974;2022-08-19T02:28:06;100477.09;;;17.73;100.00
24825;BME280;12910;57.690;11.974;2022-08-19T02:30:32;100476.22;;;17.73;100.00
24825;BME280;12910;57.690;11.974;2022-08-19T02:32:57;100474.69;;;17.61;100.00
24825;BME280;12910;57.690;11.974;2022-08-19T02:35:23;100481.44;;;17.70;100.00
24825;BME280;12910;57.690;11.974;2022-08-19T02:37:48;100465.94;;;17.68;100.00
24825;BME280;12910;57.690;11.974;2022-08-19T02:40:33;100480.47;;;17.79;100.00
24825;BME280;12910;57.690;11.974;2022-08-19T02:43:03;100456.44;;;17.67;100.00
24825;BME280;12910;57.690;11.974;2022-08-19T02:45:36;100474.66;;;17.64;100.00
24825;BME280;12910;57.690;11.974;2022-08-19T02:48:02;100473.81;;;17.62;100.00
24825;BME280;12910;57.690;11.974;2022-08-19T02:50:28;100467.88;;;17.55;100.00
24825;BME280;12910;57.690;11.974;2022-08-19T02:52:53;100474.59;;;17.69;100.00
24825;BME280;12910;57.690;11.974;2022-08-19T02:55:19;100470.34;;;17.63;100.00
24825;BME280;12910;57.690;11.974;2022-08-19T02:57:46;100463.44;;;17.62;100.00
24825;BME280;12910;57.690;11.974;2022-08-19T03:00:12;100476.22;;;17.74;100.00
24825;BME280;12910;57.690;11.974;2022-08-19T03:02:38;100472.78;;;17.72;100.00
24825;BME280;12910;57.690;11.974;2022-08-19T03:05:05;100464.91;;;17.79;100.00
24825;BME280;12910;57.690;11.974;2022-08-19T03:07:31;100453.75;;;17.75;100.00
24825;BME280;12910;57.690;11.974;2022-08-19T03:09:56;100451.03;;;17.83;100.00
24825;BME280;12910;57.690;11.974;2022-08-19T03:12:22;100462.34;;;17.77;100.00
24825;BME280;12910;57.690;11.974;2022-08-19T03:14:47;100459.09;;;17.64;100.00
24825;BME280;12910;57.690;11.974;2022-08-19T03:17:13;100468.66;;;17.59;100.00
24825;BME280;12910;57.690;11.974;2022-08-19T03:19:39;100466.88;;;17.63;100.00
24825;BME280;12910;57.690;11.974;2022-08-19T03:22:04;100459.03;;;17.67;100.00
24825;BME280;12910;57.690;11.974;2022-08-19T03:24:30;100443.47;;;17.69;100.00
24825;BME280;12910;57.690;11.974;2022-08-19T03:26:56;100446.00;;;17.73;100.00
24825;BME280;12910;57.690;11.974;2022-08-19T03:29:24;100440.81;;;17.73;100.00
24825;BME280;12910;57.690;11.974;2022-08-19T03:31:50;100448.34;;;17.86;100.00
24825;BME280;12910;57.690;11.974;2022-08-19T03:34:22;100414.94;;;17.70;100.00
24825;BME280;12910;57.690;11.974;2022-08-19T03:36:51;100429.41;;;17.82;100.00
24825;BME280;12910;57.690;11.974;2022-08-19T03:39:17;100427.53;;;17.92;100.00
24825;BME280;12910;57.690;11.974;2022-08-19T03:41:44;100435.38;;;17.87;100.00
24825;BME280;12910;57.690;11.974;2022-08-19T03:44:10;100416.44;;;17.82;100.00
24825;BME280;12910;57.690;11.974;2022-08-19T03:46:35;100423.47;;;17.75;100.00
24825;BME280;12910;57.690;11.974;2022-08-19T03:49:03;100423.44;;;17.79;100.00
24825;BME280;12910;57.690;11.974;2022-08-19T03:51:37;100430.28;;;17.83;100.00
24825;BME280;12910;57.690;11.974;2022-08-19T03:54:06;100434.69;;;17.78;100.00
24825;BME280;12910;57.690;11.974;2022-08-19T03:56:34;100429.59;;;17.71;100.00
24825;BME280;12910;57.690;11.974;2022-08-19T03:59:00;100432.94;;;17.78;100.00
24825;BME280;12910;57.690;11.974;2022-08-19T04:01:27;100431.16;;;17.82;100.00
24825;BME280;12910;57.690;11.974;2022-08-19T04:03:53;100424.16;;;17.87;100.00
24825;BME280;12910;57.690;11.974;2022-08-19T04:06:22;100433.63;;;17.88;100.00
24825;BME280;12910;57.690;11.974;2022-08-19T04:08:50;100440.56;;;17.87;100.00
24825;BME280;12910;57.690;11.974;2022-08-19T04:11:21;100435.25;;;17.95;100.00
24825;BME280;12910;57.690;11.974;2022-08-19T04:13:48;100424.88;;;17.95;100.00
24825;BME280;12910;57.690;11.974;2022-08-19T04:16:13;100421.44;;;17.95;100.00
24825;BME280;12910;57.690;11.974;2022-08-19T04:18:40;100415.44;;;17.91;100.00
24825;BME280;12910;57.690;11.974;2022-08-19T04:21:07;100408.50;;;17.93;100.00
24825;BME280;12910;57.690;11.974;2022-08-19T04:23:33;100410.19;;;17.94;100.00
24825;BME280;12910;57.690;11.974;2022-08-19T04:25:59;100411.00;;;17.99;100.00
24825;BME280;12910;57.690;11.974;2022-08-19T04:28:25;100408.50;;;17.91;100.00
24825;BME280;12910;57.690;11.974;2022-08-19T04:30:53;100404.41;;;17.80;100.00
24825;BME280;12910;57.690;11.974;2022-08-19T04:33:21;100407.88;;;17.79;100.00
24825;BME280;12910;57.690;11.974;2022-08-19T04:35:49;100403.44;;;17.85;100.00
24825;BME280;12910;57.690;11.974;2022-08-19T04:38:17;100411.19;;;17.87;100.00
24825;BME280;12910;57.690;11.974;2022-08-19T04:40:46;100410.22;;;17.92;100.00
24825;BME280;12910;57.690;11.974;2022-08-19T04:43:31;100406.75;;;17.94;100.00
24825;BME280;12910;57.690;11.974;2022-08-19T04:45:57;100407.59;;;17.96;100.00
24825;BME280;12910;57.690;11.974;2022-08-19T04:48:23;100408.47;;;17.95;100.00
24825;BME280;12910;57.690;11.974;2022-08-19T04:50:53;100409.31;;;17.95;100.00
24825;BME280;12910;57.690;11.974;2022-08-19T04:53:26;100413.84;;;17.82;100.00
24825;BME280;12910;57.690;11.974;2022-08-19T04:55:54;100425.09;;;17.81;100.00
24825;BME280;12910;57.690;11.974;2022-08-19T04:58:20;100421.56;;;17.87;100.00
24825;BME280;12910;57.690;11.974;2022-08-19T05:00:45;100411.97;;;17.90;100.00
24825;BME280;12910;57.690;11.974;2022-08-19T05:03:11;100423.94;;;18.02;100.00
24825;BME280;12910;57.690;11.974;2022-08-19T05:05:40;100438.53;;;18.08;100.00
24825;BME280;12910;57.690;11.974;2022-08-19T05:08:07;100432.44;;;18.09;100.00
24825;BME280;12910;57.690;11.974;2022-08-19T05:10:38;100435.81;;;18.14;100.00
24825;BME280;12910;57.690;11.974;2022-08-19T05:13:04;100427.94;;;18.19;100.00
24825;BME280;12910;57.690;11.974;2022-08-19T05:15:31;100435.50;;;18.30;100.00
24825;BME280;12910;57.690;11.974;2022-08-19T05:17:56;100435.44;;;18.34;100.00
24825;BME280;12910;57.690;11.974;2022-08-19T05:20:40;100430.22;;;18.36;100.00
24825;BME280;12910;57.690;11.974;2022-08-19T05:23:24;100427.53;;;18.41;100.00
24825;BME280;12910;57.690;11.974;2022-08-19T05:25:51;100428.44;;;18.40;100.00
24825;BME280;12910;57.690;11.974;2022-08-19T05:28:17;100430.94;;;18.44;100.00
24825;BME280;12910;57.690;11.974;2022-08-19T05:30:43;100425.69;;;18.46;100.00
24825;BME280;12910;57.690;11.974;2022-08-19T05:33:10;100418.75;;;18.48;100.00
24825;BME280;12910;57.690;11.974;2022-08-19T05:35:38;100425.66;;;18.49;100.00
24825;BME280;12910;57.690;11.974;2022-08-19T05:38:05;100413.56;;;18.48;100.00
24825;BME280;12910;57.690;11.974;2022-08-19T05:40:34;100423.69;;;18.60;100.00
24825;BME280;12910;57.690;11.974;2022-08-19T05:43:01;100423.81;;;18.54;100.00
24825;BME280;12910;57.690;11.974;2022-08-19T05:45:27;100428.94;;;18.57;100.00
24825;BME280;12910;57.690;11.974;2022-08-19T05:47:53;100428.16;;;18.52;100.00
24825;BME280;12910;57.690;11.974;2022-08-19T05:50:19;100429.91;;;18.51;100.00
24825;BME280;12910;57.690;11.974;2022-08-19T05:52:44;100436.03;;;18.49;100.00
24825;BME280;12910;57.690;11.974;2022-08-19T05:55:10;100436.81;;;18.52;100.00
24825;BME280;12910;57.690;11.974;2022-08-19T05:57:36;100402.47;;;18.40;100.00
24825;BME280;12910;57.690;11.974;2022-08-19T06:00:03;100424.69;;;18.55;100.00
24825;BME280;12910;57.690;11.974;2022-08-19T06:02:33;100415.19;;;18.52;100.00
24825;BME280;12910;57.690;11.974;2022-08-19T06:04:58;100426.44;;;18.52;100.00
24825;BME280;12910;57.690;11.974;2022-08-19T06:07:23;100423.88;;;18.49;100.00
24825;BME280;12910;57.690;11.974;2022-08-19T06:09:49;100424.84;;;18.45;100.00
24825;BME280;12910;57.690;11.974;2022-08-19T06:12:14;100421.31;;;18.49;100.00
24825;BME280;12910;57.690;11.974;2022-08-19T06:14:40;100422.97;;;18.53;100.00
24825;BME280;12910;57.690;11.974;2022-08-19T06:17:06;100416.88;;;18.55;100.00
24825;BME280;12910;57.690;11.974;2022-08-19T06:19:31;100418.41;;;18.63;100.00
24825;BME280;12910;57.690;11.974;2022-08-19T06:21:58;100422.72;;;18.64;100.00
24825;BME280;12910;57.690;11.974;2022-08-19T06:24:26;100413.03;;;18.74;100.00
24825;BME280;12910;57.690;11.974;2022-08-19T06:26:53;100406.03;;;18.78;100.00
24825;BME280;12910;57.690;11.974;2022-08-19T06:29:22;100405.88;;;18.84;100.00
24825;BME280;12910;57.690;11.974;2022-08-19T06:31:50;100401.41;;;18.91;100.00
24825;BME280;12910;57.690;11.974;2022-08-19T06:34:18;100392.78;;;18.89;100.00
24825;BME280;12910;57.690;11.974;2022-08-19T06:36:47;100388.38;;;18.92;100.00
24825;BME280;12910;57.690;11.974;2022-08-19T06:39:19;100384.16;;;18.88;100.00
24825;BME280;12910;57.690;11.974;2022-08-19T06:41:47;100396.16;;;18.92;100.00
24825;BME280;12910;57.690;11.974;2022-08-19T06:44:13;100397.88;;;18.95;100.00
24825;BME280;12910;57.690;11.974;2022-08-19T06:46:39;100394.38;;;18.96;100.00
24825;BME280;12910;57.690;11.974;2022-08-19T06:49:06;100395.19;;;18.99;100.00
24825;BME280;12910;57.690;11.974;2022-08-19T06:51:34;100404.56;;;19.07;100.00
24825;BME280;12910;57.690;11.974;2022-08-19T06:53:59;100390.59;;;19.11;100.00
24825;BME280;12910;57.690;11.974;2022-08-19T06:56:28;100391.41;;;19.13;100.00
24825;BME280;12910;57.690;11.974;2022-08-19T06:59:00;100399.97;;;19.18;100.00
24825;BME280;12910;57.690;11.974;2022-08-19T07:01:26;100398.31;;;19.14;100.00
24825;BME280;12910;57.690;11.974;2022-08-19T07:03:52;100390.69;;;19.06;100.00
24825;BME280;12910;57.690;11.974;2022-08-19T07:06:18;100406.22;;;19.09;100.00
24825;BME280;12910;57.690;11.974;2022-08-19T07:08:45;100404.34;;;19.16;100.00
24825;BME280;12910;57.690;11.974;2022-08-19T07:11:13;100409.44;;;19.21;100.00
24825;BME280;12910;57.690;11.974;2022-08-19T07:13:40;100411.81;;;19.30;100.00
24825;BME280;12910;57.690;11.974;2022-08-19T07:16:10;100415.16;;;19.35;100.00
24825;BME280;12910;57.690;11.974;2022-08-19T07:18:37;100416.84;;;19.38;100.00
24825;BME280;12910;57.690;11.974;2022-08-19T07:21:12;100420.25;;;19.40;100.00
24825;BME280;12910;57.690;11.974;2022-08-19T07:23:37;100417.63;;;19.41;100.00
24825;BME280;12910;57.690;11.974;2022-08-19T07:26:19;100420.94;;;19.46;100.00
24825;BME280;12910;57.690;11.974;2022-08-19T07:28:49;100414.97;;;19.43;100.00
24825;BME280;12910;57.690;11.974;2022-08-19T07:31:19;100409.00;;;19.39;100.00
24825;BME280;12910;57.690;11.974;2022-08-19T07:33:47;100420.19;;;19.43;100.00
24825;BME280;12910;57.690;11.974;2022-08-19T07:36:15;100426.94;;;19.50;100.00
24825;BME280;12910;57.690;11.974;2022-08-19T07:38:45;100422.38;;;19.60;100.00
24825;BME280;12910;57.690;11.974;2022-08-19T07:41:18;100417.88;;;19.67;100.00
24825;BME280;12910;57.690;11.974;2022-08-19T07:43:45;100419.56;;;19.68;100.00
24825;BME280;12910;57.690;11.974;2022-08-19T07:46:13;100426.53;;;19.67;100.00
24825;BME280;12910;57.690;11.974;2022-08-19T07:48:44;100427.41;;;19.66;100.00
24825;BME280;12910;57.690;11.974;2022-08-19T07:51:20;100422.97;;;19.70;100.00
24825;BME280;12910;57.690;11.974;2022-08-19T07:53:48;100426.28;;;19.76;100.00
24825;BME280;12910;57.690;11.974;2022-08-19T07:56:20;100419.31;;;19.77;100.00
24825;BME280;12910;57.690;11.974;2022-08-19T07:58:49;100414.94;;;19.79;100.00
24825;BME280;12910;57.690;11.974;2022-08-19T08:01:23;100421.03;;;19.80;100.00
24825;BME280;12910;57.690;11.974;2022-08-19T08:03:52;100423.53;;;19.83;100.00
24825;BME280;12910;57.690;11.974;2022-08-19T08:06:37;100422.56;;;19.88;100.00
24825;BME280;12910;57.690;11.974;2022-08-19T08:09:30;100423.53;;;19.83;100.00
24825;BME280;12910;57.690;11.974;2022-08-19T08:12:01;100425.22;;;19.84;100.00
24825;BME280;12910;57.690;11.974;2022-08-19T08:14:30;100425.28;;;19.82;100.00
24825;BME280;12910;57.690;11.974;2022-08-19T08:16:56;100414.00;;;19.83;100.00
24825;BME280;12910;57.690;11.974;2022-08-19T08:19:24;100423.44;;;19.87;100.00
24825;BME280;12910;57.690;11.974;2022-08-19T08:21:56;100424.19;;;19.92;100.00
24825;BME280;12910;57.690;11.974;2022-08-19T08:24:25;100423.19;;;19.97;100.00
24825;BME280;12910;57.690;11.974;2022-08-19T08:26:53;100415.41;;;19.97;100.00
24825;BME280;12910;57.690;11.974;2022-08-19T08:29:19;100417.09;;;19.98;100.00
24825;BME280;12910;57.690;11.974;2022-08-19T08:31:47;100416.34;;;19.94;100.00
24825;BME280;12910;57.690;11.974;2022-08-19T08:34:15;100418.78;;;20.00;100.00
24825;BME280;12910;57.690;11.974;2022-08-19T08:36:44;100416.06;;;20.05;100.00
24825;BME280;12910;57.690;11.974;2022-08-19T08:39:14;100409.94;;;20.06;100.00
24825;BME280;12910;57.690;11.974;2022-08-19T08:41:47;100410.03;;;20.03;100.00
24825;BME280;12910;57.690;11.974;2022-08-19T08:47:05;100398.44;;;20.15;100.00
24825;BME280;12910;57.690;11.974;2022-08-19T08:49:59;100404.34;;;20.21;100.00
24825;BME280;12910;57.690;11.974;2022-08-19T08:52:29;100399.06;;;20.24;100.00
24825;BME280;12910;57.690;11.974;2022-08-19T08:54:58;100404.84;;;20.34;100.00
24825;BME280;12910;57.690;11.974;2022-08-19T09:00:38;100403.56;;;20.49;100.00
24825;BME280;12910;57.690;11.974;2022-08-19T09:03:26;100412.88;;;20.58;100.00
24825;BME280;12910;57.690;11.974;2022-08-19T09:06:07;100401.13;;;20.73;100.00
24825;BME280;12910;57.690;11.974;2022-08-19T09:11:32;100409.72;;;20.78;100.00
24825;BME280;12910;57.690;11.974;2022-08-19T09:16:32;100404.41;;;20.81;100.00
24825;BME280;12910;57.690;11.974;2022-08-19T09:19:04;100406.22;;;20.79;100.00
24825;BME280;12910;57.690;11.974;2022-08-19T09:21:31;100403.69;;;20.76;100.00
24825;BME280;12910;57.690;11.974;2022-08-19T09:23:57;100401.94;;;20.77;100.00
24825;BME280;12910;57.690;11.974;2022-08-19T09:26:24;100411.31;;;20.82;100.00
24825;BME280;12910;57.690;11.974;2022-08-19T09:28:51;100410.13;;;20.93;100.00
24825;BME280;12910;57.690;11.974;2022-08-19T09:31:26;100404.03;;;20.94;100.00
24825;BME280;12910;57.690;11.974;2022-08-19T09:33:53;100403.09;;;20.96;100.00
24825;BME280;12910;57.690;11.974;2022-08-19T09:36:23;100404.84;;;20.96;100.00
24825;BME280;12910;57.690;11.974;2022-08-19T09:38:50;100409.81;;;21.04;100.00
24825;BME280;12910;57.690;11.974;2022-08-19T09:41:23;100405.31;;;21.09;100.00
24825;BME280;12910;57.690;11.974;2022-08-19T09:43:52;100403.44;;;21.12;100.00
24825;BME280;12910;57.690;11.974;2022-08-19T09:46:21;100395.50;;;21.17;100.00
24825;BME280;12910;57.690;11.974;2022-08-19T09:48:50;100392.72;;;21.22;100.00
24825;BME280;12910;57.690;11.974;2022-08-19T09:51:23;100390.03;;;21.25;100.00
24825;BME280;12910;57.690;11.974;2022-08-19T09:53:51;100394.06;;;21.35;100.00
24825;BME280;12910;57.690;11.974;2022-08-19T09:56:21;100397.47;;;21.37;100.00
24825;BME280;12910;57.690;11.974;2022-08-19T09:58:48;100392.34;;;21.34;100.00
24825;BME280;12910;57.690;11.974;2022-08-19T10:01:24;100395.63;;;21.41;100.00
24825;BME280;12910;57.690;11.974;2022-08-19T10:03:55;100390.25;;;21.45;100.00
24825;BME280;12910;57.690;11.974;2022-08-19T10:06:27;100393.00;;;21.41;100.00
24825;BME280;12910;57.690;11.974;2022-08-19T10:08:57;100397.56;;;21.34;100.00
24825;BME280;12910;57.690;11.974;2022-08-19T10:11:27;100394.06;;;21.35;100.00
24825;BME280;12910;57.690;11.974;2022-08-19T10:13:55;100395.47;;;21.45;100.00
24825;BME280;12910;57.690;11.974;2022-08-19T10:16:23;100388.31;;;21.51;100.00
24825;BME280;12910;57.690;11.974;2022-08-19T10:18:52;100396.69;;;21.62;100.00
24825;BME280;12910;57.690;11.974;2022-08-19T10:21:23;100384.06;;;21.48;100.00
24825;BME280;12910;57.690;11.974;2022-08-19T10:24:01;100383.00;;;21.54;100.00
24825;BME280;12910;57.690;11.974;2022-08-19T10:26:33;100382.00;;;21.59;100.00
24825;BME280;12910;57.690;11.974;2022-08-19T10:29:03;100384.44;;;21.64;100.00
24825;BME280;12910;57.690;11.974;2022-08-19T10:31:32;100390.50;;;21.64;100.00
24825;BME280;12910;57.690;11.974;2022-08-19T10:34:01;100387.97;;;21.63;100.00
24825;BME280;12910;57.690;11.974;2022-08-19T10:36:32;100380.03;;;21.66;100.00
24825;BME280;12910;57.690;11.974;2022-08-19T10:39:03;100376.31;;;21.73;100.00
24825;BME280;12910;57.690;11.974;2022-08-19T10:41:35;100385.53;;;21.84;100.00
24825;BME280;12910;57.690;11.974;2022-08-19T10:44:09;100377.69;;;21.84;100.00
24825;BME280;12910;57.690;11.974;2022-08-19T10:46:39;100366.59;;;21.78;100.00
24825;BME280;12910;57.690;11.974;2022-08-19T10:49:08;100363.97;;;21.78;100.00
24825;BME280;12910;57.690;11.974;2022-08-19T10:51:37;100367.41;;;21.79;100.00
24825;BME280;12910;57.690;11.974;2022-08-19T10:54:23;100368.91;;;21.86;100.00
24825;BME280;12910;57.690;11.974;2022-08-19T10:57:10;100366.28;;;21.86;100.00
24825;BME280;12910;57.690;11.974;2022-08-19T10:59:37;100367.03;;;21.90;100.00
24825;BME280;12910;57.690;11.974;2022-08-19T11:02:08;100370.72;;;21.84;100.00
24825;BME280;12910;57.690;11.974;2022-08-19T11:04:39;100373.16;;;21.89;100.00
24825;BME280;12910;57.690;11.974;2022-08-19T11:07:06;100373.75;;;21.97;100.00
24825;BME280;12910;57.690;11.974;2022-08-19T11:09:41;100367.41;;;22.04;100.00
24825;BME280;12910;57.690;11.974;2022-08-19T11:12:08;100364.66;;;22.07;100.00
24825;BME280;12910;57.690;11.974;2022-08-19T11:14:34;100359.91;;;22.19;100.00
24825;BME280;12910;57.690;11.974;2022-08-19T11:17:02;100361.63;;;22.20;100.00
24825;BME280;12910;57.690;11.974;2022-08-19T11:19:28;100354.69;;;22.19;100.00
24825;BME280;12910;57.690;11.974;2022-08-19T11:21:54;100349.59;;;22.16;100.00
24825;BME280;12910;57.690;11.974;2022-08-19T11:24:23;100350.34;;;22.19;100.00
24825;BME280;12910;57.690;11.974;2022-08-19T11:26:50;100338.28;;;22.15;100.00
24825;BME280;12910;57.690;11.974;2022-08-19T11:29:19;100343.41;;;22.18;100.00
24825;BME280;12910;57.690;11.974;2022-08-19T11:31:48;100342.53;;;22.18;100.00
24825;BME280;12910;57.690;11.974;2022-08-19T11:34:21;100339.03;;;22.19;100.00
24825;BME280;12910;57.690;11.974;2022-08-19T11:36:49;100339.50;;;22.30;100.00
24825;BME280;12910;57.690;11.974;2022-08-19T11:39:19;100333.66;;;22.47;100.00
24825;BME280;12910;57.690;11.974;2022-08-19T11:41:45;100348.47;;;22.47;100.00
24825;BME280;12910;57.690;11.974;2022-08-19T11:44:11;100339.88;;;22.45;100.00
24825;BME280;12910;57.690;11.974;2022-08-19T11:46:41;100331.06;;;22.47;100.00
24825;BME280;12910;57.690;11.974;2022-08-19T11:49:09;100335.31;;;22.50;100.00
24825;BME280;12910;57.690;11.974;2022-08-19T11:51:38;100337.81;;;22.53;100.00
24825;BME280;12910;57.690;11.974;2022-08-19T11:54:07;100337.66;;;22.56;100.00
24825;BME280;12910;57.690;11.974;2022-08-19T11:56:37;100335.88;;;22.58;100.00
24825;BME280;12910;57.690;11.974;2022-08-19T11:59:03;100340.09;;;22.61;100.00
24825;BME280;12910;57.690;11.974;2022-08-19T12:01:29;100344.03;;;22.72;100.00
24825;BME280;12910;57.690;11.974;2022-08-19T12:03:56;100345.59;;;22.77;100.00
24825;BME280;12910;57.690;11.974;2022-08-19T12:06:25;100341.06;;;22.82;100.00
24825;BME280;12910;57.690;11.974;2022-08-19T12:08:55;100347.06;;;22.84;100.00
24825;BME280;12910;57.690;11.974;2022-08-19T12:11:21;100335.69;;;22.85;100.00
24825;BME280;12910;57.690;11.974;2022-08-19T12:13:47;100345.22;;;22.86;100.00
24825;BME280;12910;57.690;11.974;2022-08-19T12:16:19;100346.81;;;22.90;100.00
24825;BME280;12910;57.690;11.974;2022-08-19T12:18:46;100344.09;;;22.93;100.00
24825;BME280;12910;57.690;11.974;2022-08-19T12:21:14;100337.69;;;23.00;100.00
24825;BME280;12910;57.690;11.974;2022-08-19T12:23:41;100339.25;;;23.04;100.00
24825;BME280;12910;57.690;11.974;2022-08-19T12:26:09;100335.69;;;23.07;100.00
24825;BME280;12910;57.690;11.974;2022-08-19T12:28:35;100333.72;;;23.12;100.00
24825;BME280;12910;57.690;11.974;2022-08-19T12:31:01;100330.94;;;23.17;100.00
24825;BME280;12910;57.690;11.974;2022-08-19T12:33:27;100333.25;;;23.25;100.00
24825;BME280;12910;57.690;11.974;2022-08-19T12:35:54;100331.38;;;23.28;100.00
24825;BME280;12910;57.690;11.974;2022-08-19T12:38:20;100327.84;;;23.29;100.00
24825;BME280;12910;57.690;11.974;2022-08-19T12:40:49;100321.69;;;23.30;100.00
24825;BME280;12910;57.690;11.974;2022-08-19T12:43:17;100319.94;;;23.31;100.00
24825;BME280;12910;57.690;11.974;2022-08-19T12:45:43;100334.06;;;23.27;100.00
24825;BME280;12910;57.690;11.974;2022-08-19T12:48:10;100326.41;;;23.22;100.00